Romford, United Kingdom
Current Conditions -  °F | °C
As of 6:20 AM on Wednesday 26 Nov 2014 (Local Time) from EGLC Reporting Station
Light Rain Light Rain  
Wind Chill: 46°   Ceiling: 600
Heat Index: 48°   Visibility: 4mi
Dew Point: 46°   Wind: 5mph
Humidity: 93%   Direction: 80°E
Pressure: 29.88"   Gusts: NA
Location:  51.57°N, 0.18°E
Report Text: EGLC 260620Z 08004KT 030V100 7000 -RADZ BKN006 09/08 Q1012
Loading
Personal Weather Stations






























Interactive Weather Map New forecast layout! Learn more

10-Day Weather Forecast

Advertisements
Track Severe Weather on mobile